createdAt,value
2023-04-21T00:01:50.116Z,28.27
2023-04-21T00:04:17.943Z,27.67
2023-04-21T00:06:45.582Z,26.87
2023-04-21T00:09:12.241Z,30.83
2023-04-21T00:11:38.996Z,30.63
2023-04-21T00:14:05.610Z,31.50
2023-04-21T00:16:32.199Z,30.27
2023-04-21T00:18:59.274Z,31.03
2023-04-21T00:21:26.750Z,31.67
2023-04-21T00:23:53.451Z,34.23
2023-04-21T00:26:20.910Z,30.40
2023-04-21T00:28:49.270Z,31.47
2023-04-21T00:31:16.196Z,32.13
2023-04-21T00:33:42.843Z,32.23
2023-04-21T00:36:09.495Z,33.23
2023-04-21T00:38:36.409Z,36.40
2023-04-21T00:41:03.072Z,32.10
2023-04-21T00:43:30.387Z,34.33
2023-04-21T00:45:56.958Z,33.50
2023-04-21T00:48:23.638Z,36.23
2023-04-21T00:50:50.180Z,34.23
2023-04-21T00:53:17.540Z,37.50
2023-04-21T00:55:45.863Z,32.67
2023-04-21T00:58:12.475Z,37.60
2023-04-21T01:00:39.656Z,37.07
2023-04-21T01:03:06.801Z,33.87
2023-04-21T01:05:33.577Z,37.50
2023-04-21T01:08:01.049Z,39.27
2023-04-21T01:10:27.650Z,36.73
2023-04-21T01:12:54.218Z,38.23
2023-04-21T01:15:21.045Z,37.17
2023-04-21T01:17:47.826Z,36.50
2023-04-21T01:20:14.834Z,38.73
2023-04-21T01:22:42.195Z,37.53
2023-04-21T01:25:09.087Z,38.73
2023-04-21T01:27:36.145Z,40.83
2023-04-21T01:30:03.585Z,36.57
2023-04-21T01:32:31.393Z,39.17
2023-04-21T01:34:58.500Z,36.20
2023-04-21T01:37:26.828Z,33.57
2023-04-21T01:39:54.794Z,34.53
2023-04-21T01:42:22.353Z,29.37
2023-04-21T01:44:49.637Z,30.60
2023-04-21T01:47:17.686Z,32.93
2023-04-21T01:49:45.631Z,36.50
2023-04-21T01:52:12.551Z,37.57
2023-04-21T01:54:42.935Z,38.37
2023-04-21T01:57:09.682Z,40.70
2023-04-21T01:59:37.185Z,32.50
2023-04-21T02:02:04.033Z,37.00
2023-04-21T02:04:33.390Z,36.57
2023-04-21T02:06:59.989Z,37.90
2023-04-21T02:09:26.613Z,39.17
2023-04-21T02:11:54.998Z,28.90
2023-04-21T02:14:21.453Z,36.07
2023-04-21T02:16:48.044Z,39.70
2023-04-21T02:19:14.742Z,40.30
2023-04-21T02:21:41.205Z,45.93
2023-04-21T02:24:07.860Z,45.83
2023-04-21T02:26:34.378Z,44.27
2023-04-21T02:29:00.943Z,41.33
2023-04-21T02:31:27.957Z,45.50
2023-04-21T02:33:54.729Z,43.90
2023-04-21T02:36:21.684Z,41.97
2023-04-21T02:38:48.346Z,40.80
2023-04-21T02:41:14.965Z,49.00
2023-04-21T02:43:41.648Z,48.57
2023-04-21T02:46:08.463Z,51.90
2023-04-21T02:48:35.642Z,51.33
2023-04-21T02:51:02.199Z,50.67
2023-04-21T02:53:29.097Z,42.00
2023-04-21T02:55:56.426Z,43.00
2023-04-21T02:58:23.389Z,41.53
2023-04-21T03:00:50.220Z,37.77
2023-04-21T03:03:17.062Z,41.80
2023-04-21T03:05:43.774Z,37.67
2023-04-21T03:08:10.434Z,34.83
2023-04-21T03:10:37.552Z,37.80
2023-04-21T03:13:04.125Z,34.60
2023-04-21T03:15:32.055Z,34.90
2023-04-21T03:18:01.703Z,35.13
2023-04-21T03:20:28.708Z,31.87
2023-04-21T03:22:55.291Z,34.43
2023-04-21T03:25:22.034Z,32.57
2023-04-21T03:27:48.873Z,34.27
2023-04-21T03:30:15.556Z,33.70
2023-04-21T03:32:42.197Z,34.40
2023-04-21T03:35:08.787Z,34.70
2023-04-21T03:37:35.386Z,34.27
2023-04-21T03:40:02.091Z,30.37
2023-04-21T03:42:30.190Z,31.20
2023-04-21T03:45:01.099Z,30.80
2023-04-21T03:47:27.953Z,31.97
2023-04-21T03:49:54.431Z,30.70
2023-04-21T03:52:21.079Z,31.37
2023-04-21T03:54:47.775Z,28.40
2023-04-21T03:57:14.343Z,29.07
2023-04-21T03:59:41.156Z,28.50
2023-04-21T04:02:07.888Z,28.60
2023-04-21T04:04:34.689Z,30.60
2023-04-21T04:07:01.463Z,35.80
2023-04-21T04:09:28.092Z,25.23
2023-04-21T04:11:54.646Z,26.13
2023-04-21T04:14:21.230Z,28.13
2023-04-21T04:16:47.816Z,28.33
2023-04-21T04:19:14.493Z,24.97
2023-04-21T04:21:40.990Z,27.43
2023-04-21T04:24:08.365Z,28.30
2023-04-21T04:26:35.514Z,23.93
2023-04-21T04:29:02.410Z,27.27
2023-04-21T04:31:30.357Z,26.73
2023-04-21T04:33:57.354Z,27.33
2023-04-21T04:36:24.496Z,28.30
2023-04-21T04:38:51.267Z,26.90
2023-04-21T04:45:32.959Z,25.60
2023-04-21T04:48:00.396Z,29.37
2023-04-21T04:50:27.134Z,27.13
2023-04-21T04:52:53.685Z,22.70
2023-04-21T04:55:20.331Z,28.00
2023-04-21T04:57:48.231Z,25.37
2023-04-21T05:00:14.913Z,25.17
2023-04-21T05:02:41.868Z,28.80
2023-04-21T05:05:08.916Z,26.30
2023-04-21T05:07:35.664Z,23.40
2023-04-21T05:10:04.266Z,26.27
2023-04-21T05:12:32.240Z,29.17
2023-04-21T05:14:58.864Z,23.47
2023-04-21T05:17:25.803Z,30.20
2023-04-21T05:19:52.500Z,31.30
2023-04-21T05:22:19.065Z,29.47
2023-04-21T05:24:45.633Z,26.70
2023-04-21T05:27:12.200Z,26.00
2023-04-21T05:29:38.774Z,25.60
2023-04-21T05:32:05.714Z,28.67
2023-04-21T05:34:32.462Z,24.07
2023-04-21T05:36:59.040Z,26.17
2023-04-21T05:39:27.136Z,31.20
2023-04-21T05:41:53.687Z,24.27
2023-04-21T05:44:20.387Z,24.33
2023-04-21T05:46:47.238Z,27.87
2023-04-21T05:49:14.484Z,27.90
2023-04-21T05:51:41.322Z,25.37
2023-04-21T05:54:07.889Z,23.07
2023-04-21T05:56:34.421Z,26.17
2023-04-21T05:59:01.189Z,22.97
2023-04-21T06:01:27.832Z,23.93
2023-04-21T06:03:54.710Z,23.70
2023-04-21T06:06:22.392Z,22.13
2023-04-21T06:08:48.904Z,23.50
2023-04-21T06:11:15.598Z,22.90
2023-04-21T06:13:43.580Z,24.50
2023-04-21T06:16:10.305Z,21.83
2023-04-21T06:18:36.908Z,12.83
2023-04-21T06:21:03.567Z,13.60
2023-04-21T06:23:30.100Z,12.50
2023-04-21T06:26:05.101Z,15.50
2023-04-21T06:28:32.242Z,16.77
2023-04-21T06:30:59.085Z,14.87
2023-04-21T06:33:26.857Z,12.77
2023-04-21T06:35:53.790Z,18.57
2023-04-21T06:38:20.808Z,11.47
2023-04-21T06:40:47.355Z,15.57
2023-04-21T06:43:14.192Z,14.40
2023-04-21T06:45:40.721Z,12.60
2023-04-21T06:48:07.457Z,16.60
2023-04-21T06:50:34.023Z,16.27
2023-04-21T06:53:00.581Z,11.67
2023-04-21T06:55:27.120Z,14.30
2023-04-21T06:57:53.675Z,12.03
2023-04-21T07:00:21.107Z,16.07
2023-04-21T07:02:47.986Z,15.90
2023-04-21T07:05:14.566Z,12.37
2023-04-21T07:07:41.414Z,10.60
2023-04-21T07:10:08.254Z,6.80
2023-04-21T07:12:34.789Z,12.30
2023-04-21T07:15:01.292Z,15.40
2023-04-21T07:17:27.786Z,13.07
2023-04-21T07:19:54.358Z,12.37
2023-04-21T07:22:20.940Z,14.17
2023-04-21T07:24:49.186Z,12.23
2023-04-21T07:27:16.099Z,8.60
2023-04-21T07:29:42.655Z,5.97
2023-04-21T07:32:09.336Z,8.03
2023-04-21T07:34:35.963Z,4.90
2023-04-21T07:37:02.564Z,6.53
2023-04-21T07:39:29.412Z,9.40
2023-04-21T07:41:55.966Z,9.97
2023-04-21T07:44:22.548Z,8.80
2023-04-21T07:46:49.034Z,8.20
2023-04-21T07:49:16.766Z,8.27
2023-04-21T07:51:43.357Z,6.70
2023-04-21T07:54:10.069Z,7.57
2023-04-21T07:56:36.591Z,10.50
2023-04-21T07:59:03.155Z,11.03
2023-04-21T08:01:29.676Z,10.43
2023-04-21T08:03:56.328Z,9.63
2023-04-21T08:06:23.134Z,6.13
2023-04-21T08:08:50.317Z,4.67
2023-04-21T08:11:16.898Z,8.53
2023-04-21T08:13:43.625Z,5.53
2023-04-21T08:16:10.393Z,9.17
2023-04-21T08:18:36.964Z,11.07
2023-04-21T08:21:03.589Z,8.63
2023-04-21T08:23:32.348Z,12.23
2023-04-21T08:25:59.094Z,9.40
2023-04-21T08:28:26.031Z,12.13
2023-04-21T08:30:52.602Z,8.13
2023-04-21T08:33:19.314Z,12.53
2023-04-21T08:35:59.276Z,11.33
2023-04-21T08:38:29.477Z,6.67
2023-04-21T08:40:57.810Z,8.30
2023-04-21T08:43:24.277Z,6.73
2023-04-21T08:45:51.230Z,13.07
2023-04-21T08:48:18.736Z,10.93
2023-04-21T08:50:46.749Z,8.63
2023-04-21T08:53:13.949Z,5.33
2023-04-21T08:55:47.826Z,7.00
2023-04-21T08:58:16.195Z,8.83
2023-04-21T09:00:42.829Z,11.20
2023-04-21T09:03:19.458Z,7.20
2023-04-21T09:05:59.472Z,6.80
2023-04-21T09:08:28.028Z,6.63
2023-04-21T09:10:55.254Z,9.37
2023-04-21T09:13:28.926Z,9.40
2023-04-21T09:15:55.515Z,5.07
2023-04-21T09:18:23.277Z,7.03
2023-04-21T09:20:51.726Z,7.27
2023-04-21T09:23:18.556Z,8.23
2023-04-21T09:25:45.947Z,7.93
2023-04-21T09:28:13.778Z,9.20
2023-04-21T09:30:41.114Z,10.97
2023-04-21T09:33:20.140Z,9.70
2023-04-21T09:35:54.273Z,8.37
2023-04-21T09:38:22.463Z,8.33
2023-04-21T09:40:56.899Z,6.90
2023-04-21T09:43:23.661Z,9.37
2023-04-21T09:45:51.013Z,8.10
2023-04-21T09:48:19.491Z,8.43
2023-04-21T09:53:19.260Z,13.57
2023-04-21T09:55:47.588Z,7.37
2023-04-21T09:58:16.033Z,6.50
2023-04-21T10:00:42.897Z,7.97
2023-04-21T10:03:12.010Z,11.10
2023-04-21T10:05:42.095Z,8.33
2023-04-21T10:08:11.875Z,6.43
2023-04-21T10:10:38.788Z,6.57
2023-04-21T10:13:05.631Z,9.30
2023-04-21T10:15:39.073Z,6.07
2023-04-21T10:18:12.376Z,5.63
2023-04-21T10:20:52.856Z,4.67
2023-04-21T10:23:29.304Z,4.60
2023-04-21T10:26:16.202Z,3.90
2023-04-21T10:28:42.735Z,2.73
2023-04-21T10:31:17.202Z,5.00
2023-04-21T10:33:58.840Z,5.80
2023-04-21T10:36:25.403Z,6.80
2023-04-21T10:38:55.281Z,5.00
2023-04-21T10:41:34.417Z,4.97
2023-04-21T10:44:21.382Z,4.20
2023-04-21T10:46:52.337Z,4.90
2023-04-21T10:49:18.796Z,5.53
2023-04-21T10:51:57.677Z,5.90
2023-04-21T10:54:25.982Z,4.90
2023-04-21T10:56:57.630Z,3.80
2023-04-21T10:59:24.748Z,8.77
2023-04-21T11:01:51.677Z,8.17
2023-04-21T11:04:20.849Z,6.80
2023-04-21T11:07:07.830Z,4.63
2023-04-21T11:09:34.974Z,3.60
2023-04-21T11:12:03.442Z,3.47
2023-04-21T11:14:30.075Z,6.00
2023-04-21T11:16:56.680Z,4.90
2023-04-21T11:19:25.118Z,5.67
2023-04-21T11:21:53.739Z,4.67
2023-04-21T11:24:21.579Z,4.33
2023-04-21T11:26:48.538Z,7.20
2023-04-21T11:29:15.556Z,4.70
2023-04-21T11:31:43.054Z,4.00
2023-04-21T11:34:09.563Z,5.30
2023-04-21T11:36:36.682Z,8.27
2023-04-21T11:39:10.433Z,7.20
2023-04-21T11:41:39.053Z,4.97
2023-04-21T11:44:05.696Z,7.90
2023-04-21T11:46:37.252Z,5.10
2023-04-21T11:49:04.877Z,3.40
2023-04-21T11:51:36.273Z,5.10
2023-04-21T11:54:04.453Z,8.17
2023-04-21T11:56:34.668Z,5.87
2023-04-21T11:59:06.403Z,7.37
2023-04-21T12:01:33.059Z,10.30
2023-04-21T12:03:59.751Z,5.10
2023-04-21T12:06:28.586Z,11.03
2023-04-21T12:08:56.789Z,9.40
2023-04-21T12:11:24.196Z,12.20
2023-04-21T12:13:51.016Z,11.60
2023-04-21T12:16:18.366Z,9.00
2023-04-21T12:18:44.918Z,7.57
2023-04-21T12:21:14.360Z,7.67
2023-04-21T12:23:40.810Z,10.43
2023-04-21T12:26:07.369Z,6.67
2023-04-21T12:28:34.172Z,5.23
2023-04-21T12:31:00.786Z,6.73
2023-04-21T12:33:27.414Z,5.27
2023-04-21T12:35:54.071Z,7.83
2023-04-21T12:38:21.100Z,5.97
2023-04-21T12:40:48.289Z,8.33
2023-04-21T12:43:14.860Z,7.40
2023-04-21T12:45:41.575Z,3.17
2023-04-21T12:48:08.205Z,6.67
2023-04-21T12:50:34.679Z,5.10
2023-04-21T12:53:01.141Z,5.40
2023-04-21T12:55:27.568Z,5.77
2023-04-21T12:57:54.096Z,5.47
2023-04-21T13:00:20.735Z,5.20
2023-04-21T13:02:47.498Z,5.63
2023-04-21T13:05:14.821Z,5.70
2023-04-21T13:07:41.568Z,4.77
2023-04-21T13:10:08.735Z,4.87
2023-04-21T13:12:35.644Z,6.40
2023-04-21T13:15:02.322Z,5.67
2023-04-21T13:17:29.010Z,4.90
2023-04-21T13:19:56.015Z,4.27
2023-04-21T13:22:22.632Z,3.83
2023-04-21T13:24:49.197Z,4.93
2023-04-21T13:27:15.901Z,5.13
2023-04-21T13:29:42.447Z,6.20
2023-04-21T13:32:09.260Z,5.57
2023-04-21T13:34:36.219Z,6.63
2023-04-21T13:37:02.719Z,6.70
2023-04-21T13:39:29.548Z,4.00
2023-04-21T13:41:56.720Z,2.73
2023-04-21T13:44:23.306Z,2.40
2023-04-21T13:46:52.335Z,3.80
2023-04-21T13:49:19.173Z,3.63
2023-04-21T13:51:45.666Z,5.40
2023-04-21T13:54:12.395Z,3.87
2023-04-21T13:56:38.962Z,1.97
2023-04-21T13:59:06.801Z,2.70
2023-04-21T14:01:33.349Z,2.85
2023-04-21T14:04:00.173Z,4.07
2023-04-21T14:06:28.106Z,2.70
2023-04-21T14:08:55.279Z,2.00
2023-04-21T14:11:27.537Z,3.57
2023-04-21T14:14:10.531Z,2.73
2023-04-21T14:16:37.480Z,2.80
2023-04-21T14:19:04.182Z,3.63
2023-04-21T14:21:31.689Z,3.33
2023-04-21T14:23:58.401Z,3.97
2023-04-21T14:26:25.026Z,4.10
2023-04-21T14:28:51.613Z,3.23
2023-04-21T14:31:20.391Z,3.23
2023-04-21T14:33:48.269Z,3.17
2023-04-21T14:36:14.887Z,3.40
2023-04-21T14:38:42.704Z,2.87
2023-04-21T14:41:09.603Z,1.97
2023-04-21T14:43:36.632Z,4.00
2023-04-21T14:46:03.616Z,2.20
2023-04-21T14:48:30.376Z,3.90
2023-04-21T14:50:57.973Z,3.10
2023-04-21T14:53:24.909Z,1.73
2023-04-21T14:55:52.984Z,1.67
2023-04-21T14:58:21.022Z,2.33
2023-04-21T15:00:49.340Z,2.50
2023-04-21T15:03:16.039Z,2.90
2023-04-21T15:05:43.134Z,2.30
2023-04-21T15:08:10.108Z,2.40
2023-04-21T15:10:36.699Z,2.77
2023-04-21T15:13:03.413Z,2.03
2023-04-21T15:15:30.004Z,2.80
2023-04-21T15:17:56.599Z,3.07
2023-04-21T15:20:36.539Z,2.57
2023-04-21T15:23:07.512Z,3.10
2023-04-21T15:25:34.093Z,4.00
2023-04-21T15:28:00.818Z,3.20
2023-04-21T15:30:27.516Z,3.53
2023-04-21T15:32:54.467Z,3.03
2023-04-21T15:35:21.008Z,3.70
2023-04-21T15:37:47.585Z,2.90
2023-04-21T15:40:14.296Z,4.50
2023-04-21T15:42:40.953Z,4.77
2023-04-21T15:45:08.414Z,3.90
2023-04-21T15:47:35.181Z,3.53
2023-04-21T15:50:39.462Z,5.20
2023-04-21T15:53:06.380Z,2.30
2023-04-21T15:55:33.279Z,3.27
2023-04-21T15:58:00.056Z,1.57
2023-04-21T16:00:26.840Z,1.33
2023-04-21T16:02:53.894Z,1.23
2023-04-21T16:05:22.255Z,2.20
2023-04-21T16:07:50.678Z,0.60
2023-04-21T16:10:17.469Z,0.70
2023-04-21T16:12:45.477Z,1.03
2023-04-21T16:15:23.888Z,0.83
2023-04-21T16:17:52.565Z,0.60
2023-04-21T16:20:19.419Z,1.70
2023-04-21T16:22:46.383Z,1.00
2023-04-21T16:25:14.281Z,0.90
2023-04-21T16:27:41.222Z,1.20
2023-04-21T16:30:08.767Z,0.90
2023-04-21T16:32:35.737Z,0.90
2023-04-21T16:35:07.816Z,0.97
2023-04-21T16:37:40.171Z,1.90
2023-04-21T16:40:07.571Z,1.33
2023-04-21T16:42:34.533Z,1.50
2023-04-21T16:45:03.512Z,1.37
2023-04-21T16:47:31.362Z,2.37
2023-04-21T16:49:58.067Z,1.77
2023-04-21T16:52:25.838Z,1.93
2023-04-21T16:54:52.607Z,1.97
2023-04-21T16:57:19.276Z,1.63
2023-04-21T16:59:46.488Z,1.70
2023-04-21T17:02:13.272Z,2.10
2023-04-21T17:04:40.399Z,2.23
2023-04-21T17:07:07.436Z,2.10
2023-04-21T17:09:34.045Z,1.87
2023-04-21T17:12:01.217Z,1.90
2023-04-21T17:14:27.810Z,1.70
2023-04-21T17:16:55.001Z,1.60
2023-04-21T17:19:22.079Z,2.63
2023-04-21T17:21:49.237Z,2.20
2023-04-21T17:24:15.804Z,1.50
2023-04-21T17:26:43.200Z,1.73
2023-04-21T17:29:09.813Z,6.10
2023-04-21T17:31:36.591Z,2.20
2023-04-21T17:34:03.673Z,2.50
2023-04-21T17:36:30.551Z,2.73
2023-04-21T17:38:58.205Z,2.20
2023-04-21T17:41:25.592Z,2.40
2023-04-21T17:43:53.228Z,2.60
2023-04-21T17:46:19.862Z,2.43
2023-04-21T17:48:46.449Z,2.23
2023-04-21T17:51:14.686Z,1.53
2023-04-21T17:53:42.237Z,2.03
2023-04-21T17:56:09.368Z,2.50
2023-04-21T17:58:35.990Z,3.10
2023-04-21T18:01:02.509Z,25.07
2023-04-21T18:03:29.294Z,23.33
2023-04-21T18:05:56.366Z,10.67
2023-04-21T18:08:22.981Z,3.23
2023-04-21T18:10:49.534Z,3.20
2023-04-21T18:13:16.314Z,2.60
2023-04-21T18:15:42.808Z,2.73
2023-04-21T18:18:09.735Z,2.07
2023-04-21T18:20:36.970Z,7.40
2023-04-21T18:23:03.521Z,2.60
2023-04-21T18:25:41.301Z,2.90
2023-04-21T18:28:10.936Z,2.20
2023-04-21T18:30:38.620Z,2.10
2023-04-21T18:33:05.721Z,2.20
2023-04-21T18:35:33.816Z,3.50
2023-04-21T18:38:00.729Z,3.90
2023-04-21T18:40:27.339Z,1.67
2023-04-21T18:42:59.242Z,1.63
2023-04-21T18:45:46.769Z,1.10
2023-04-21T18:48:17.280Z,1.40
2023-04-21T18:50:44.009Z,1.33
2023-04-21T18:53:10.942Z,1.37
2023-04-21T18:55:39.880Z,1.43
2023-04-21T18:58:10.270Z,1.17
2023-04-21T19:00:39.557Z,2.47
2023-04-21T19:03:06.799Z,2.20
2023-04-21T19:05:35.852Z,2.50
2023-04-21T19:08:02.551Z,1.00
2023-04-21T19:10:29.197Z,1.13
2023-04-21T19:12:55.770Z,1.70
2023-04-21T19:15:22.360Z,2.00
2023-04-21T19:17:49.114Z,1.60
2023-04-21T19:20:15.848Z,2.20
2023-04-21T19:22:42.543Z,2.30
2023-04-21T19:25:09.427Z,2.20
2023-04-21T19:27:36.187Z,1.90
2023-04-21T19:30:03.022Z,2.37
2023-04-21T19:32:30.847Z,2.10
2023-04-21T19:34:57.618Z,1.97
2023-04-21T19:37:26.093Z,3.67
2023-04-21T19:39:52.745Z,3.20
2023-04-21T19:42:19.679Z,1.93
2023-04-21T19:44:46.165Z,4.07
2023-04-21T19:47:12.870Z,2.70
2023-04-21T19:49:39.439Z,2.53
2023-04-21T19:52:06.092Z,2.73
2023-04-21T19:54:32.851Z,4.60
2023-04-21T19:56:59.560Z,2.77
2023-04-21T19:59:26.637Z,2.70
2023-04-21T20:01:53.449Z,3.10
2023-04-21T20:04:20.361Z,2.17
2023-04-21T20:06:47.058Z,2.53
2023-04-21T20:09:13.652Z,2.30
2023-04-21T20:11:41.407Z,2.10
2023-04-21T20:14:08.072Z,1.90
2023-04-21T20:16:35.362Z,2.00
2023-04-21T20:19:02.219Z,1.73
2023-04-21T20:21:28.887Z,2.40
2023-04-21T20:23:55.754Z,3.30
2023-04-21T20:26:23.018Z,3.10
2023-04-21T20:28:50.035Z,2.90
2023-04-21T20:31:19.007Z,3.03
2023-04-21T20:33:45.891Z,2.67
2023-04-21T20:36:12.588Z,2.70
2023-04-21T20:38:39.185Z,2.30
2023-04-21T20:41:06.643Z,2.97
2023-04-21T20:43:33.479Z,3.17
2023-04-21T20:46:01.395Z,16.13
2023-04-21T20:48:28.104Z,6.90
2023-04-21T20:50:54.688Z,6.17
2023-04-21T20:53:22.355Z,8.60
2023-04-21T20:55:48.921Z,4.53
2023-04-21T20:58:15.514Z,4.20
2023-04-21T21:00:42.041Z,3.87
2023-04-21T21:03:11.375Z,4.00
2023-04-21T21:05:38.417Z,3.80
2023-04-21T21:08:05.117Z,4.40
2023-04-21T21:10:31.716Z,4.30
2023-04-21T21:12:59.504Z,4.17
2023-04-21T21:15:31.119Z,4.67
2023-04-21T21:17:58.319Z,5.30
2023-04-21T21:20:24.853Z,4.37
2023-04-21T21:22:51.672Z,5.23
2023-04-21T21:25:18.146Z,4.27
2023-04-21T21:27:44.879Z,5.10
2023-04-21T21:30:11.790Z,5.83
2023-04-21T21:32:38.351Z,5.10
2023-04-21T21:35:06.658Z,6.27
2023-04-21T21:37:33.178Z,5.20
2023-04-21T21:39:59.627Z,6.07
2023-04-21T21:42:26.161Z,5.60
2023-04-21T21:44:52.626Z,6.73
2023-04-21T21:47:19.178Z,5.67
2023-04-21T21:49:45.804Z,6.00
2023-04-21T21:52:14.836Z,6.23
2023-04-21T21:54:41.368Z,6.60
2023-04-21T21:57:07.840Z,5.67
2023-04-21T21:59:34.440Z,7.30
2023-04-21T22:02:01.030Z,7.13
2023-04-21T22:04:27.765Z,6.67
2023-04-21T22:06:54.421Z,6.03
2023-04-21T22:09:21.507Z,5.20
2023-04-21T22:11:48.037Z,7.53
2023-04-21T22:14:21.843Z,7.90
2023-04-21T22:16:50.518Z,6.80
2023-04-21T22:19:18.980Z,6.47
2023-04-21T22:21:45.870Z,7.07
2023-04-21T22:24:12.754Z,7.47
2023-04-21T22:26:39.428Z,6.97
2023-04-21T22:29:06.026Z,7.90
2023-04-21T22:31:32.652Z,6.90
2023-04-21T22:33:59.340Z,6.67
2023-04-21T22:36:26.168Z,6.00
2023-04-21T22:38:52.805Z,7.10
2023-04-21T22:41:19.507Z,6.60
2023-04-21T22:43:46.275Z,6.40
2023-04-21T22:46:12.830Z,7.03
2023-04-21T22:48:39.712Z,6.83
2023-04-21T22:51:07.130Z,6.60
2023-04-21T22:53:33.732Z,6.10
2023-04-21T22:56:00.224Z,6.80
2023-04-21T22:58:26.796Z,7.50
2023-04-21T23:00:53.396Z,6.40
2023-04-21T23:03:20.201Z,6.83
2023-04-21T23:05:46.834Z,6.83
2023-04-21T23:08:13.440Z,8.30
2023-04-21T23:10:40.294Z,8.23
2023-04-21T23:13:06.788Z,7.17
2023-04-21T23:15:33.333Z,7.50
2023-04-21T23:17:59.834Z,7.23
2023-04-21T23:20:26.961Z,7.67
2023-04-21T23:22:53.899Z,8.90
2023-04-21T23:25:20.835Z,9.07
2023-04-21T23:27:47.595Z,8.80
2023-04-21T23:30:14.133Z,10.27
2023-04-21T23:32:41.506Z,8.40
2023-04-21T23:35:09.380Z,8.70
2023-04-21T23:37:36.072Z,8.90
2023-04-21T23:40:02.912Z,9.73
2023-04-21T23:42:29.551Z,10.60
2023-04-21T23:44:56.185Z,9.80
2023-04-21T23:47:22.742Z,10.63
2023-04-21T23:49:49.239Z,9.07
2023-04-21T23:52:15.904Z,10.73
2023-04-21T23:54:42.362Z,10.80
2023-04-21T23:57:08.889Z,11.37
2023-04-21T23:59:35.479Z,10.13
